createdAt,value
2023-01-21T00:01:23.205Z,-1.60
2023-01-21T00:03:55.543Z,-1.50
2023-01-21T00:06:27.675Z,-1.50
2023-01-21T00:08:59.807Z,-1.60
2023-01-21T00:11:32.026Z,-1.60
2023-01-21T00:14:04.106Z,-1.50
2023-01-21T00:16:36.316Z,-1.60
2023-01-21T00:19:08.369Z,-1.60
2023-01-21T00:21:40.508Z,-1.60
2023-01-21T00:24:12.637Z,-1.60
2023-01-21T00:26:44.863Z,-1.60
2023-01-21T00:29:16.896Z,-1.60
2023-01-21T00:31:49.049Z,-1.60
2023-01-21T00:34:21.160Z,-1.60
2023-01-21T00:36:55.142Z,-1.60
2023-01-21T00:39:28.515Z,-1.60
2023-01-21T00:42:00.753Z,-1.60
2023-01-21T00:44:35.263Z,-1.60
2023-01-21T00:47:08.543Z,-1.70
2023-01-21T00:49:40.621Z,-1.60
2023-01-21T00:52:12.681Z,-1.70
2023-01-21T00:54:44.759Z,-1.70
2023-01-21T00:57:16.787Z,-1.70
2023-01-21T00:59:49.092Z,-1.70
2023-01-21T01:02:21.097Z,-1.60
2023-01-21T01:04:53.142Z,-1.60
2023-01-21T01:07:35.599Z,-1.60
2023-01-21T01:10:08.243Z,-1.60
2023-01-21T01:12:41.318Z,-1.60
2023-01-21T01:15:13.892Z,-1.60
2023-01-21T01:17:46.141Z,-1.60
2023-01-21T01:20:18.578Z,-1.60
2023-01-21T01:22:50.744Z,-1.60
2023-01-21T01:25:22.675Z,-1.60
2023-01-21T01:27:54.628Z,-1.60
2023-01-21T01:30:26.637Z,-1.60
2023-01-21T01:32:58.725Z,-1.60
2023-01-21T01:35:32.745Z,-1.60
2023-01-21T01:38:08.010Z,-1.70
2023-01-21T01:40:40.943Z,-1.70
2023-01-21T01:43:19.524Z,-1.70
2023-01-21T01:45:54.925Z,-1.70
2023-01-21T01:48:32.128Z,-1.70
2023-01-21T01:51:07.326Z,-1.70
2023-01-21T01:53:43.207Z,-1.70
2023-01-21T01:56:16.503Z,-1.80
2023-01-21T01:58:49.430Z,-1.80
2023-01-21T02:01:23.769Z,-1.80
2023-01-21T02:04:00.941Z,-1.90
2023-01-21T02:06:38.542Z,-1.90
2023-01-21T02:09:11.396Z,-2.00
2023-01-21T02:11:43.343Z,-2.00
2023-01-21T02:14:15.495Z,-2.10
2023-01-21T02:17:00.338Z,-2.10
2023-01-21T02:20:22.791Z,-2.20
2023-01-21T02:23:24.980Z,-2.20
2023-01-21T02:26:29.687Z,-2.30
2023-01-21T02:29:39.864Z,-2.40
2023-01-21T02:32:55.865Z,-2.40
2023-01-21T02:36:24.792Z,-2.50
2023-01-21T02:39:43.737Z,-2.60
2023-01-21T02:42:50.863Z,-2.60
2023-01-21T02:45:49.703Z,-2.60
2023-01-21T02:48:35.899Z,-2.70
2023-01-21T02:51:13.177Z,-2.70
2023-01-21T02:53:45.185Z,-2.80
2023-01-21T02:56:22.765Z,-2.80
2023-01-21T02:59:04.723Z,-2.80
2023-01-21T03:01:55.461Z,-2.90
2023-01-21T03:05:23.081Z,-2.90
2023-01-21T03:08:22.241Z,-2.90
2023-01-21T03:11:18.101Z,-3.00
2023-01-21T03:14:16.727Z,-3.00
2023-01-21T03:17:21.595Z,-3.00
2023-01-21T03:20:15.165Z,-3.00
2023-01-21T03:22:59.357Z,-3.10
2023-01-21T03:25:38.469Z,-3.10
2023-01-21T03:28:17.319Z,-3.10
2023-01-21T03:30:58.997Z,-3.10
2023-01-21T03:33:39.406Z,-3.20
2023-01-21T03:36:40.635Z,-3.20
2023-01-21T03:39:43.717Z,-3.20
2023-01-21T03:42:24.619Z,-3.20
2023-01-21T03:44:57.751Z,-3.30
2023-01-21T03:47:34.677Z,-3.30
2023-01-21T03:50:17.222Z,-3.30
2023-01-21T03:53:02.639Z,-3.40
2023-01-21T03:55:36.745Z,-3.40
2023-01-21T03:58:08.755Z,-3.40
2023-01-21T04:00:40.769Z,-3.50
2023-01-21T04:03:12.703Z,-3.50
2023-01-21T04:05:44.799Z,-3.50
2023-01-21T04:08:16.892Z,-3.60
2023-01-21T04:10:48.875Z,-3.60
2023-01-21T04:13:20.890Z,-3.60
2023-01-21T04:15:52.820Z,-3.70
2023-01-21T04:18:24.956Z,-3.70
2023-01-21T04:20:57.196Z,-3.80
2023-01-21T04:23:29.340Z,-3.80
2023-01-21T04:26:01.460Z,-3.80
2023-01-21T04:28:33.629Z,-3.80
2023-01-21T04:31:05.656Z,-3.80
2023-01-21T04:33:38.347Z,-3.80
2023-01-21T04:36:10.471Z,-3.80
2023-01-21T04:38:42.622Z,-3.80
2023-01-21T04:41:14.683Z,-3.90
2023-01-21T04:43:46.592Z,-3.90
2023-01-21T04:46:18.508Z,-3.90
2023-01-21T04:48:50.503Z,-4.00
2023-01-21T04:51:22.676Z,-4.00
2023-01-21T04:53:54.802Z,-4.00
2023-01-21T04:56:26.758Z,-4.10
2023-01-21T04:58:58.654Z,-4.10
2023-01-21T05:01:30.721Z,-4.10
2023-01-21T05:04:02.934Z,-4.10
2023-01-21T05:06:35.127Z,-4.10
2023-01-21T05:09:07.086Z,-4.20
2023-01-21T05:11:39.108Z,-4.10
2023-01-21T05:14:11.211Z,-4.10
2023-01-21T05:16:43.196Z,-4.20
2023-01-21T05:19:15.481Z,-4.20
2023-01-21T05:21:47.485Z,-4.20
2023-01-21T05:24:19.493Z,-4.20
2023-01-21T05:26:51.734Z,-4.30
2023-01-21T05:29:23.786Z,-4.30
2023-01-21T05:31:56.021Z,-4.30
2023-01-21T05:34:28.120Z,-4.20
2023-01-21T05:37:00.176Z,-4.20
2023-01-21T05:39:32.641Z,-4.30
2023-01-21T05:42:04.653Z,-4.30
2023-01-21T05:44:36.645Z,-4.30
2023-01-21T05:47:08.846Z,-4.30
2023-01-21T05:49:40.922Z,-4.30
2023-01-21T05:52:12.950Z,-4.20
2023-01-21T05:55:00.617Z,-4.20
2023-01-21T05:57:34.027Z,-4.20
2023-01-21T06:00:10.902Z,-4.10
2023-01-21T06:02:43.541Z,-4.10
2023-01-21T06:05:28.816Z,-4.00
2023-01-21T06:08:00.980Z,-4.00
2023-01-21T06:10:33.097Z,-4.00
2023-01-21T06:13:05.463Z,-4.00
2023-01-21T06:15:37.675Z,-4.00
2023-01-21T06:18:10.022Z,-4.00
2023-01-21T06:20:42.059Z,-4.00
2023-01-21T06:23:14.428Z,-3.90
2023-01-21T06:25:46.607Z,-4.00
2023-01-21T06:28:18.524Z,-3.90
2023-01-21T06:30:50.685Z,-3.90
2023-01-21T06:33:22.824Z,-3.90
2023-01-21T06:35:54.794Z,-3.90
2023-01-21T06:38:26.762Z,-3.90
2023-01-21T06:40:58.892Z,-3.90
2023-01-21T06:43:33.094Z,-3.90
2023-01-21T06:46:05.416Z,-3.90
2023-01-21T06:48:37.633Z,-3.90
2023-01-21T06:51:10.193Z,-3.80
2023-01-21T06:53:42.257Z,-3.90
2023-01-21T06:56:14.197Z,-3.90
2023-01-21T06:58:46.263Z,-3.90
2023-01-21T07:01:18.887Z,-3.90
2023-01-21T07:03:50.921Z,-3.90
2023-01-21T07:06:22.892Z,-3.80
2023-01-21T07:08:56.178Z,-3.80
2023-01-21T07:11:28.209Z,-3.80
2023-01-21T07:14:01.328Z,-3.80
2023-01-21T07:16:33.392Z,-3.80
2023-01-21T07:19:05.748Z,-3.80
2023-01-21T07:21:37.841Z,-3.80
2023-01-21T07:24:14.633Z,-3.70
2023-01-21T07:26:46.733Z,-3.70
2023-01-21T07:29:19.451Z,-3.70
2023-01-21T07:31:51.862Z,-3.60
2023-01-21T07:35:21.936Z,-3.60
2023-01-21T07:37:54.141Z,-3.60
2023-01-21T07:40:26.178Z,-3.50
2023-01-21T07:42:58.309Z,-3.50
2023-01-21T07:45:30.401Z,-3.50
2023-01-21T07:48:02.493Z,-3.40
2023-01-21T07:50:45.425Z,-3.40
2023-01-21T07:53:17.588Z,-3.30
2023-01-21T07:55:49.647Z,-3.30
2023-01-21T07:58:21.668Z,-3.30
2023-01-21T08:00:53.702Z,-3.30
2023-01-21T08:03:26.029Z,-3.30
2023-01-21T08:05:58.072Z,-3.20
2023-01-21T08:08:30.289Z,-3.20
2023-01-21T08:11:03.018Z,-3.20
2023-01-21T08:13:50.640Z,-3.20
2023-01-21T08:16:22.962Z,-3.20
2023-01-21T08:18:55.236Z,-3.10
2023-01-21T08:21:27.298Z,-3.10
2023-01-21T08:23:59.338Z,-3.10
2023-01-21T08:26:31.372Z,-3.00
2023-01-21T08:29:03.831Z,-3.00
2023-01-21T08:31:36.657Z,-3.00
2023-01-21T08:34:09.080Z,-2.90
2023-01-21T08:36:41.334Z,-2.90
2023-01-21T08:39:14.968Z,-2.90
2023-01-21T08:41:47.517Z,-2.80
2023-01-21T08:44:46.107Z,-2.80
2023-01-21T08:47:22.114Z,-2.80
2023-01-21T08:49:54.738Z,-2.70
2023-01-21T08:52:27.476Z,-2.70
2023-01-21T08:55:00.186Z,-2.60
2023-01-21T08:57:32.467Z,-2.60
2023-01-21T09:00:05.803Z,-2.60
2023-01-21T09:02:38.709Z,-2.60
2023-01-21T09:05:10.945Z,-2.50
2023-01-21T09:07:43.459Z,-2.50
2023-01-21T09:10:38.784Z,-2.40
2023-01-21T09:13:37.582Z,-2.40
2023-01-21T09:16:14.011Z,-2.30
2023-01-21T09:18:53.761Z,-2.30
2023-01-21T09:21:27.192Z,-2.20
2023-01-21T09:24:00.596Z,-2.10
2023-01-21T09:26:33.086Z,-2.10
2023-01-21T09:29:05.300Z,-2.00
2023-01-21T09:31:37.786Z,-2.00
2023-01-21T09:34:11.757Z,-1.90
2023-01-21T09:36:44.509Z,-1.90
2023-01-21T09:39:16.473Z,-1.90
2023-01-21T09:41:54.344Z,-1.80
2023-01-21T09:44:45.298Z,-1.80
2023-01-21T09:47:31.888Z,-1.70
2023-01-21T09:50:22.174Z,-1.70
2023-01-21T09:53:04.710Z,-1.70
2023-01-21T09:56:04.663Z,-1.60
2023-01-21T09:59:21.045Z,-1.60
2023-01-21T10:02:14.967Z,-1.50
2023-01-21T10:05:38.064Z,-1.50
2023-01-21T10:08:48.537Z,-1.40
2023-01-21T10:12:09.278Z,-1.40
2023-01-21T10:15:22.357Z,-1.40
2023-01-21T10:18:12.881Z,-1.30
2023-01-21T10:21:03.676Z,-1.30
2023-01-21T10:23:50.033Z,-1.30
2023-01-21T10:26:31.881Z,-1.30
2023-01-21T10:29:05.424Z,-1.20
2023-01-21T10:31:44.507Z,-1.20
2023-01-21T10:34:24.370Z,-1.20
2023-01-21T10:37:37.122Z,-1.10
2023-01-21T10:40:44.042Z,-1.10
2023-01-21T10:44:04.251Z,-1.10
2023-01-21T10:47:16.693Z,-1.10
2023-01-21T10:50:18.518Z,-1.10
2023-01-21T10:53:49.148Z,-1.10
2023-01-21T11:00:32.801Z,-1.10
2023-01-21T11:03:45.400Z,-1.10
2023-01-21T11:07:17.734Z,-1.00
2023-01-21T11:09:51.796Z,-1.00
2023-01-21T11:12:25.043Z,-1.00
2023-01-21T11:15:00.568Z,-0.90
2023-01-21T11:17:45.960Z,-0.90
2023-01-21T11:20:40.806Z,-0.90
2023-01-21T11:23:25.913Z,-0.80
2023-01-21T11:26:16.617Z,-0.80
2023-01-21T11:29:16.903Z,-0.80
2023-01-21T11:32:04.953Z,-0.80
2023-01-21T11:34:50.779Z,-0.80
2023-01-21T11:37:36.309Z,-0.80
2023-01-21T11:40:26.830Z,-0.80
2023-01-21T11:42:59.731Z,-0.80
2023-01-21T11:45:36.914Z,-0.80
2023-01-21T11:48:20.924Z,-0.80
2023-01-21T11:51:06.976Z,-0.70
2023-01-21T11:53:43.611Z,-0.60
2023-01-21T11:56:18.306Z,-0.60
2023-01-21T11:58:50.892Z,-0.60
2023-01-21T12:01:23.207Z,-0.60
2023-01-21T12:04:00.778Z,-0.60
2023-01-21T12:06:36.688Z,-0.60
2023-01-21T12:09:23.381Z,-0.60
2023-01-21T12:12:31.185Z,-0.60
2023-01-21T12:15:30.893Z,-0.50
2023-01-21T12:18:49.782Z,-0.50
2023-01-21T12:22:11.939Z,-0.50
2023-01-21T12:25:12.272Z,-0.50
2023-01-21T12:28:29.479Z,-0.50
2023-01-21T12:31:32.687Z,-0.50
2023-01-21T12:34:56.251Z,-0.50
2023-01-21T12:37:57.375Z,-0.50
2023-01-21T12:40:46.531Z,-0.50
2023-01-21T12:43:43.636Z,-0.60
2023-01-21T12:46:57.349Z,-0.60
2023-01-21T12:50:06.316Z,-0.60
2023-01-21T12:53:38.645Z,-0.60
2023-01-21T12:56:57.315Z,-0.60
2023-01-21T12:59:50.737Z,-0.60
2023-01-21T13:02:51.910Z,-0.60
2023-01-21T13:06:23.968Z,-0.60
2023-01-21T13:09:11.773Z,-0.60
2023-01-21T13:12:19.183Z,-0.60
2023-01-21T13:15:34.783Z,-0.60
2023-01-21T13:18:22.635Z,-0.50
2023-01-21T13:21:37.625Z,-0.60
2023-01-21T13:24:55.194Z,-0.60
2023-01-21T13:27:46.594Z,-0.60
2023-01-21T13:31:09.795Z,-0.60
2023-01-21T13:34:15.841Z,-0.60
2023-01-21T13:37:08.074Z,-0.70
2023-01-21T13:40:08.208Z,-0.60
2023-01-21T13:43:24.628Z,-0.60
2023-01-21T13:46:19.531Z,-0.70
2023-01-21T13:49:40.452Z,-0.70
2023-01-21T13:52:58.775Z,-0.60
2023-01-21T13:55:50.574Z,-0.60
2023-01-21T13:58:52.076Z,-0.60
2023-01-21T14:01:36.964Z,-0.60
2023-01-21T14:04:43.177Z,-0.60
2023-01-21T14:08:10.086Z,-0.60
2023-01-21T14:10:53.874Z,-0.60
2023-01-21T14:13:50.791Z,-0.60
2023-01-21T14:17:05.675Z,-0.60
2023-01-21T14:20:13.253Z,-0.60
2023-01-21T14:23:21.819Z,-0.60
2023-01-21T14:26:31.951Z,-0.60
2023-01-21T14:29:57.655Z,-0.60
2023-01-21T14:32:44.963Z,-0.60
2023-01-21T14:36:00.907Z,-0.70
2023-01-21T14:39:02.331Z,-0.70
2023-01-21T14:42:04.696Z,-0.70
2023-01-21T14:45:02.577Z,-0.70
2023-01-21T14:47:38.730Z,-0.80
2023-01-21T14:51:00.662Z,-0.80
2023-01-21T14:53:47.374Z,-0.80
2023-01-21T14:56:32.219Z,-0.80
2023-01-21T14:59:25.286Z,-0.80
2023-01-21T15:02:20.838Z,-0.80
2023-01-21T15:05:03.635Z,-0.80
2023-01-21T15:08:11.887Z,-0.90
2023-01-21T15:11:06.628Z,-0.90
2023-01-21T15:14:03.892Z,-0.90
2023-01-21T15:16:46.917Z,-0.90
2023-01-21T15:19:30.069Z,-0.90
2023-01-21T15:22:40.918Z,-0.90
2023-01-21T15:25:36.973Z,-0.90
2023-01-21T15:28:40.543Z,-0.90
2023-01-21T15:31:23.805Z,-0.90
2023-01-21T15:34:19.183Z,-0.90
2023-01-21T15:36:57.385Z,-0.90
2023-01-21T15:39:33.630Z,-0.90
2023-01-21T15:42:20.473Z,-0.90
2023-01-21T15:45:38.076Z,-0.90
2023-01-21T15:48:36.479Z,-0.90
2023-01-21T15:52:04.922Z,-0.90
2023-01-21T15:54:57.615Z,-0.90
2023-01-21T15:58:15.750Z,-0.90
2023-01-21T16:01:34.548Z,-1.00
2023-01-21T16:04:30.771Z,-1.00
2023-01-21T16:07:31.289Z,-1.00
2023-01-21T16:11:04.652Z,-1.00
2023-01-21T16:14:13.064Z,-1.00
2023-01-21T16:17:34.456Z,-1.00
2023-01-21T16:20:26.831Z,-1.00
2023-01-21T16:23:02.727Z,-1.00
2023-01-21T16:25:46.379Z,-1.00
2023-01-21T16:28:21.352Z,-1.00
2023-01-21T16:31:01.797Z,-1.00
2023-01-21T16:33:34.764Z,-1.00
2023-01-21T16:36:08.842Z,-1.00
2023-01-21T16:38:47.147Z,-1.00
2023-01-21T16:41:24.413Z,-1.00
2023-01-21T16:44:04.362Z,-1.00
2023-01-21T16:46:40.430Z,-0.90
2023-01-21T16:49:16.417Z,-1.00
2023-01-21T16:51:59.550Z,-1.00
2023-01-21T16:54:33.431Z,-1.00
2023-01-21T16:57:27.827Z,-1.00
2023-01-21T17:00:02.775Z,-1.00
2023-01-21T17:02:52.308Z,-1.00
2023-01-21T17:05:31.047Z,-1.00
2023-01-21T17:08:11.625Z,-1.00
2023-01-21T17:11:00.306Z,-1.00
2023-01-21T17:13:41.023Z,-0.90
2023-01-21T17:16:25.762Z,-0.90
2023-01-21T17:19:06.090Z,-0.90
2023-01-21T17:21:49.491Z,-0.90
2023-01-21T17:24:34.018Z,-0.90
2023-01-21T17:27:17.581Z,-0.90
2023-01-21T17:29:51.315Z,-0.90
2023-01-21T17:32:32.785Z,-0.90
2023-01-21T17:35:13.929Z,-0.90
2023-01-21T17:37:52.130Z,-0.90
2023-01-21T17:40:36.730Z,-0.90
2023-01-21T17:43:22.491Z,-0.90
2023-01-21T17:45:58.148Z,-0.90
2023-01-21T17:48:37.619Z,-0.90
2023-01-21T17:51:25.828Z,-0.90
2023-01-21T17:54:06.109Z,-0.90
2023-01-21T17:57:00.554Z,-0.90
2023-01-21T17:59:36.055Z,-0.90
2023-01-21T18:02:17.851Z,-0.90
2023-01-21T18:04:52.614Z,-0.90
2023-01-21T18:07:30.026Z,-0.90
2023-01-21T18:10:02.927Z,-0.90
2023-01-21T18:12:42.901Z,-0.90
2023-01-21T18:15:18.292Z,-0.90
2023-01-21T18:18:02.484Z,-0.90
2023-01-21T18:20:36.331Z,-0.90
2023-01-21T18:23:11.840Z,-0.90
2023-01-21T18:25:57.488Z,-0.90
2023-01-21T18:28:31.608Z,-0.90
2023-01-21T18:31:05.374Z,-0.90
2023-01-21T18:33:40.961Z,-0.90
2023-01-21T18:36:13.987Z,-0.80
2023-01-21T18:38:46.270Z,-0.90
2023-01-21T18:41:18.548Z,-0.90
2023-01-21T18:44:18.005Z,-0.90
2023-01-21T18:46:50.437Z,-0.90
2023-01-21T18:49:23.430Z,-0.90
2023-01-21T18:51:56.285Z,-0.90
2023-01-21T18:54:29.174Z,-0.90
2023-01-21T18:57:01.612Z,-0.90
2023-01-21T18:59:34.612Z,-0.90
2023-01-21T19:02:20.896Z,-0.90
2023-01-21T19:04:53.181Z,-0.90
2023-01-21T19:07:25.834Z,-1.00
2023-01-21T19:09:59.660Z,-1.00
2023-01-21T19:12:32.285Z,-1.00
2023-01-21T19:15:08.178Z,-1.00
2023-01-21T19:18:12.346Z,-1.00
2023-01-21T19:20:45.886Z,-1.10
2023-01-21T19:23:18.634Z,-1.10
2023-01-21T19:25:55.788Z,-1.00
2023-01-21T19:28:28.516Z,-1.10
2023-01-21T19:31:01.448Z,-1.10
2023-01-21T19:33:34.384Z,-1.10
2023-01-21T19:36:16.682Z,-1.10
2023-01-21T19:38:55.841Z,-1.10
2023-01-21T19:41:29.627Z,-1.00
2023-01-21T19:44:02.099Z,-1.10
2023-01-21T19:46:34.906Z,-1.10
2023-01-21T19:49:17.241Z,-1.10
2023-01-21T19:51:50.146Z,-1.10
2023-01-21T19:54:23.113Z,-1.10
2023-01-21T19:57:29.639Z,-1.10
2023-01-21T20:00:02.517Z,-1.10
2023-01-21T20:02:54.905Z,-1.10
2023-01-21T20:05:30.323Z,-1.10
2023-01-21T20:08:06.572Z,-1.20
2023-01-21T20:10:50.229Z,-1.20
2023-01-21T20:13:23.336Z,-1.20
2023-01-21T20:15:57.060Z,-1.20
2023-01-21T20:18:33.357Z,-1.20
2023-01-21T20:21:06.359Z,-1.20
2023-01-21T20:23:39.482Z,-1.20
2023-01-21T20:26:21.882Z,-1.20
2023-01-21T20:28:57.985Z,-1.20
2023-01-21T20:31:35.654Z,-1.20
2023-01-21T20:34:09.230Z,-1.20
2023-01-21T20:36:44.387Z,-1.20
2023-01-21T20:39:26.202Z,-1.20
2023-01-21T20:41:58.539Z,-1.20
2023-01-21T20:44:30.811Z,-1.20
2023-01-21T20:47:03.732Z,-1.20
2023-01-21T20:49:36.068Z,-1.20
2023-01-21T20:52:10.833Z,-1.20
2023-01-21T20:54:43.269Z,-1.20
2023-01-21T20:57:18.751Z,-1.30
2023-01-21T20:59:51.376Z,-1.30
2023-01-21T21:02:23.934Z,-1.30
2023-01-21T21:04:56.595Z,-1.30
2023-01-21T21:07:28.867Z,-1.30
2023-01-21T21:10:01.958Z,-1.30
2023-01-21T21:12:35.416Z,-1.30
2023-01-21T21:15:10.784Z,-1.30
2023-01-21T21:17:44.931Z,-1.30
2023-01-21T21:20:39.445Z,-1.30
2023-01-21T21:23:15.435Z,-1.30
2023-01-21T21:25:48.727Z,-1.30
2023-01-21T21:28:21.390Z,-1.30
2023-01-21T21:31:32.119Z,-1.30
2023-01-21T21:34:04.414Z,-1.30
2023-01-21T21:36:36.957Z,-1.30
2023-01-21T21:39:12.627Z,-1.30
2023-01-21T21:42:08.614Z,-1.30
2023-01-21T21:45:00.415Z,-1.30
2023-01-21T21:47:51.336Z,-1.30
2023-01-21T21:50:43.380Z,-1.30
2023-01-21T21:53:15.657Z,-1.30
2023-01-21T21:55:47.848Z,-1.30
2023-01-21T21:58:20.526Z,-1.30
2023-01-21T22:00:54.380Z,-1.30
2023-01-21T22:03:26.605Z,-1.30
2023-01-21T22:06:01.872Z,-1.30
2023-01-21T22:08:37.269Z,-1.30
2023-01-21T22:11:16.812Z,-1.30
2023-01-21T22:13:51.425Z,-1.30
2023-01-21T22:16:28.796Z,-1.30
2023-01-21T22:19:01.933Z,-1.30
2023-01-21T22:21:34.560Z,-1.30
2023-01-21T22:24:08.287Z,-1.30
2023-01-21T22:26:40.811Z,-1.30
2023-01-21T22:29:13.101Z,-1.30
2023-01-21T22:31:45.197Z,-1.30
2023-01-21T22:34:17.521Z,-1.30
2023-01-21T22:37:32.928Z,-1.30
2023-01-21T22:40:05.831Z,-1.30
2023-01-21T22:42:55.336Z,-1.30
2023-01-21T22:45:27.748Z,-1.30
2023-01-21T22:48:00.122Z,-1.30
2023-01-21T22:50:33.152Z,-1.30
2023-01-21T22:53:05.759Z,-1.30
2023-01-21T22:55:38.513Z,-1.30
2023-01-21T22:58:11.386Z,-1.30
2023-01-21T23:00:44.189Z,-1.30
2023-01-21T23:03:16.702Z,-1.30
2023-01-21T23:05:49.901Z,-1.30
2023-01-21T23:08:23.117Z,-1.30
2023-01-21T23:11:04.707Z,-1.30
2023-01-21T23:13:38.355Z,-1.30
2023-01-21T23:16:14.418Z,-1.30
2023-01-21T23:18:49.709Z,-1.30
2023-01-21T23:21:22.570Z,-1.30
2023-01-21T23:23:55.239Z,-1.30
2023-01-21T23:26:27.667Z,-1.30
2023-01-21T23:29:00.409Z,-1.30
2023-01-21T23:31:32.781Z,-1.20
2023-01-21T23:34:06.834Z,-1.30
2023-01-21T23:36:43.195Z,-1.30
2023-01-21T23:39:15.974Z,-1.30
2023-01-21T23:41:48.654Z,-1.30
2023-01-21T23:44:20.915Z,-1.30
2023-01-21T23:46:56.271Z,-1.30
2023-01-21T23:49:29.640Z,-1.30
2023-01-21T23:52:05.325Z,-1.30
2023-01-21T23:54:43.917Z,-1.30
2023-01-21T23:57:16.299Z,-1.30
2023-01-21T23:59:48.690Z,-1.40
